Aviation Digital Data Service (ADDS)

Output produced by METARs form (0603 UTC 25 June 2018)
found at http://www.aviationweather.gov/adds/metars/
 
METAR text: KFAM 250556Z AUTO 00000KT 4SM BR OVC002 21/21 A2996 RMK AO2 SLP138 T02110211 10239 20206 402670167 53001
Conditions at: KFAM (FARMINGTON , MO, US) observed 0556 UTC 25 June 2018
Temperature: 21.1°C (70°F)
Dewpoint: 21.1°C (70°F) [RH = 100%]
Pressure (altimeter): 29.96 inches Hg (1014.6 mb)
[Sea-level pressure: 1013.8 mb]
Winds: calm
Visibility: 4 miles (6 km)
Ceiling: 200 feet AGL
Clouds: overcast cloud deck at 200 feet AGL
Weather: BR  (mist)